sensor_id;sensor_type;location;lat;lon;timestamp;P1;P2;P0
54869;PMS5003;40756;-37.950;145.008;2022-09-21T00:01:41;6;6;
54869;PMS5003;40756;-37.950;145.008;2022-09-21T00:04:11;6;5;
54869;PMS5003;40756;-37.950;145.008;2022-09-21T00:06:41;5;5;
54869;PMS5003;40756;-37.950;145.008;2022-09-21T00:09:11;5;5;
54869;PMS5003;40756;-37.950;145.008;2022-09-21T00:11:40;5;4;
54869;PMS5003;40756;-37.950;145.008;2022-09-21T00:14:11;5;5;
54869;PMS5003;40756;-37.950;145.008;2022-09-21T00:16:41;6;5;
54869;PMS5003;40756;-37.950;145.008;2022-09-21T00:19:11;6;6;
54869;PMS5003;40756;-37.950;145.008;2022-09-21T00:21:40;5;4;
54869;PMS5003;40756;-37.950;145.008;2022-09-21T00:24:10;4;4;
54869;PMS5003;40756;-37.950;145.008;2022-09-21T00:26:39;5;4;
54869;PMS5003;40756;-37.950;145.008;2022-09-21T00:29:09;5;5;
54869;PMS5003;40756;-37.950;145.008;2022-09-21T00:31:38;4;4;
54869;PMS5003;40756;-37.950;145.008;2022-09-21T00:34:08;4;4;
54869;PMS5003;40756;-37.950;145.008;2022-09-21T00:36:37;3;3;
54869;PMS5003;40756;-37.950;145.008;2022-09-21T00:39:08;5;5;
54869;PMS5003;40756;-37.950;145.008;2022-09-21T00:41:38;4;4;
54869;PMS5003;40756;-37.950;145.008;2022-09-21T00:44:39;5;5;
54869;PMS5003;40756;-37.950;145.008;2022-09-21T00:47:10;5;4;
54869;PMS5003;40756;-37.950;145.008;2022-09-21T00:49:44;6;6;
54869;PMS5003;40756;-37.950;145.008;2022-09-21T00:52:19;7;6;
54869;PMS5003;40756;-37.950;145.008;2022-09-21T00:54:53;5;5;
54869;PMS5003;40756;-37.950;145.008;2022-09-21T00:57:28;5;5;
54869;PMS5003;40756;-37.950;145.008;2022-09-21T00:59:59;6;6;
54869;PMS5003;40756;-37.950;145.008;2022-09-21T01:02:34;6;5;
54869;PMS5003;40756;-37.950;145.008;2022-09-21T01:05:05;7;6;
54869;PMS5003;40756;-37.950;145.008;2022-09-21T01:07:38;6;5;
54869;PMS5003;40756;-37.950;145.008;2022-09-21T01:10:12;7;7;
54869;PMS5003;40756;-37.950;145.008;2022-09-21T01:12:49;8;7;
54869;PMS5003;40756;-37.950;145.008;2022-09-21T01:15:34;6;5;
54869;PMS5003;40756;-37.950;145.008;2022-09-21T01:18:12;5;5;
54869;PMS5003;40756;-37.950;145.008;2022-09-21T01:20:52;8;8;
54869;PMS5003;40756;-37.950;145.008;2022-09-21T01:23:50;8;7;
54869;PMS5003;40756;-37.950;145.008;2022-09-21T01:27:20;8;8;
54869;PMS5003;40756;-37.950;145.008;2022-09-21T01:30:02;12;10;
54869;PMS5003;40756;-37.950;145.008;2022-09-21T01:32:35;9;8;
54869;PMS5003;40756;-37.950;145.008;2022-09-21T01:35:08;11;10;
54869;PMS5003;40756;-37.950;145.008;2022-09-21T01:37:44;12;10;
54869;PMS5003;40756;-37.950;145.008;2022-09-21T01:40:19;7;7;
54869;PMS5003;40756;-37.950;145.008;2022-09-21T01:42:52;12;11;
54869;PMS5003;40756;-37.950;145.008;2022-09-21T01:45:24;10;8;
54869;PMS5003;40756;-37.950;145.008;2022-09-21T01:47:58;12;11;
54869;PMS5003;40756;-37.950;145.008;2022-09-21T01:50:30;8;8;
54869;PMS5003;40756;-37.950;145.008;2022-09-21T01:53:04;10;10;
54869;PMS5003;40756;-37.950;145.008;2022-09-21T01:55:40;10;9;
54869;PMS5003;40756;-37.950;145.008;2022-09-21T01:58:13;8;8;
54869;PMS5003;40756;-37.950;145.008;2022-09-21T02:00:47;10;10;
54869;PMS5003;40756;-37.950;145.008;2022-09-21T02:03:23;9;8;
54869;PMS5003;40756;-37.950;145.008;2022-09-21T02:05:59;7;7;
54869;PMS5003;40756;-37.950;145.008;2022-09-21T02:08:32;7;7;
54869;PMS5003;40756;-37.950;145.008;2022-09-21T02:11:03;9;7;
54869;PMS5003;40756;-37.950;145.008;2022-09-21T02:13:35;8;7;
54869;PMS5003;40756;-37.950;145.008;2022-09-21T02:16:12;8;8;
54869;PMS5003;40756;-37.950;145.008;2022-09-21T02:18:55;7;7;
54869;PMS5003;40756;-37.950;145.008;2022-09-21T02:21:39;5;5;
54869;PMS5003;40756;-37.950;145.008;2022-09-21T02:24:22;10;9;
54869;PMS5003;40756;-37.950;145.008;2022-09-21T02:27:02;10;9;
54869;PMS5003;40756;-37.950;145.008;2022-09-21T02:29:36;7;6;
54869;PMS5003;40756;-37.950;145.008;2022-09-21T02:32:16;7;6;
54869;PMS5003;40756;-37.950;145.008;2022-09-21T02:34:57;8;8;
54869;PMS5003;40756;-37.950;145.008;2022-09-21T02:37:31;9;8;
54869;PMS5003;40756;-37.950;145.008;2022-09-21T02:40:09;5;5;
54869;PMS5003;40756;-37.950;145.008;2022-09-21T02:42:46;6;6;
54869;PMS5003;40756;-37.950;145.008;2022-09-21T02:45:23;7;6;
54869;PMS5003;40756;-37.950;145.008;2022-09-21T02:47:58;11;10;
54869;PMS5003;40756;-37.950;145.008;2022-09-21T02:50:34;7;7;
54869;PMS5003;40756;-37.950;145.008;2022-09-21T02:53:09;8;7;
54869;PMS5003;40756;-37.950;145.008;2022-09-21T02:55:41;7;7;
54869;PMS5003;40756;-37.950;145.008;2022-09-21T02:58:13;8;8;
54869;PMS5003;40756;-37.950;145.008;2022-09-21T03:00:43;8;8;
54869;PMS5003;40756;-37.950;145.008;2022-09-21T03:03:14;8;7;
54869;PMS5003;40756;-37.950;145.008;2022-09-21T03:05:45;9;8;
54869;PMS5003;40756;-37.950;145.008;2022-09-21T03:08:18;8;8;
54869;PMS5003;40756;-37.950;145.008;2022-09-21T03:10:48;9;9;
54869;PMS5003;40756;-37.950;145.008;2022-09-21T03:13:18;11;9;
54869;PMS5003;40756;-37.950;145.008;2022-09-21T03:15:47;9;9;
54869;PMS5003;40756;-37.950;145.008;2022-09-21T03:18:16;8;8;
54869;PMS5003;40756;-37.950;145.008;2022-09-21T03:20:46;10;8;
54869;PMS5003;40756;-37.950;145.008;2022-09-21T03:23:16;9;8;
54869;PMS5003;40756;-37.950;145.008;2022-09-21T03:25:45;11;10;
54869;PMS5003;40756;-37.950;145.008;2022-09-21T03:28:15;8;8;
54869;PMS5003;40756;-37.950;145.008;2022-09-21T03:30:44;10;10;
54869;PMS5003;40756;-37.950;145.008;2022-09-21T03:33:15;12;11;
54869;PMS5003;40756;-37.950;145.008;2022-09-21T03:35:46;9;9;
54869;PMS5003;40756;-37.950;145.008;2022-09-21T03:38:15;8;8;
54869;PMS5003;40756;-37.950;145.008;2022-09-21T03:40:47;12;9;
54869;PMS5003;40756;-37.950;145.008;2022-09-21T03:43:17;14;14;
54869;PMS5003;40756;-37.950;145.008;2022-09-21T03:45:47;12;11;
54869;PMS5003;40756;-37.950;145.008;2022-09-21T03:48:17;11;10;
54869;PMS5003;40756;-37.950;145.008;2022-09-21T03:50:46;10;10;
54869;PMS5003;40756;-37.950;145.008;2022-09-21T03:53:16;13;13;
54869;PMS5003;40756;-37.950;145.008;2022-09-21T03:55:45;11;9;
54869;PMS5003;40756;-37.950;145.008;2022-09-21T03:58:15;11;10;
54869;PMS5003;40756;-37.950;145.008;2022-09-21T04:00:44;12;10;
54869;PMS5003;40756;-37.950;145.008;2022-09-21T04:03:14;22;20;
54869;PMS5003;40756;-37.950;145.008;2022-09-21T04:05:44;12;12;
54869;PMS5003;40756;-37.950;145.008;2022-09-21T04:08:13;11;9;
54869;PMS5003;40756;-37.950;145.008;2022-09-21T04:10:42;10;9;
54869;PMS5003;40756;-37.950;145.008;2022-09-21T04:13:12;8;8;
54869;PMS5003;40756;-37.950;145.008;2022-09-21T04:15:42;8;8;
54869;PMS5003;40756;-37.950;145.008;2022-09-21T04:18:11;8;8;
54869;PMS5003;40756;-37.950;145.008;2022-09-21T04:20:41;8;7;
54869;PMS5003;40756;-37.950;145.008;2022-09-21T04:23:10;9;6;
54869;PMS5003;40756;-37.950;145.008;2022-09-21T04:25:40;7;6;
54869;PMS5003;40756;-37.950;145.008;2022-09-21T04:28:10;7;7;
54869;PMS5003;40756;-37.950;145.008;2022-09-21T04:30:40;7;7;
54869;PMS5003;40756;-37.950;145.008;2022-09-21T04:33:10;5;5;
54869;PMS5003;40756;-37.950;145.008;2022-09-21T04:35:39;7;6;
54869;PMS5003;40756;-37.950;145.008;2022-09-21T04:38:09;5;5;
54869;PMS5003;40756;-37.950;145.008;2022-09-21T04:40:38;5;5;
54869;PMS5003;40756;-37.950;145.008;2022-09-21T04:43:08;3;3;
54869;PMS5003;40756;-37.950;145.008;2022-09-21T04:45:37;5;5;
54869;PMS5003;40756;-37.950;145.008;2022-09-21T04:48:07;3;3;
54869;PMS5003;40756;-37.950;145.008;2022-09-21T04:50:37;4;3;
54869;PMS5003;40756;-37.950;145.008;2022-09-21T04:53:06;4;3;
54869;PMS5003;40756;-37.950;145.008;2022-09-21T04:55:35;3;3;
54869;PMS5003;40756;-37.950;145.008;2022-09-21T04:58:05;5;5;
54869;PMS5003;40756;-37.950;145.008;2022-09-21T05:00:34;5;5;
54869;PMS5003;40756;-37.950;145.008;2022-09-21T05:03:04;6;5;
54869;PMS5003;40756;-37.950;145.008;2022-09-21T05:05:33;3;3;
54869;PMS5003;40756;-37.950;145.008;2022-09-21T05:08:03;5;5;
54869;PMS5003;40756;-37.950;145.008;2022-09-21T05:10:33;5;5;
54869;PMS5003;40756;-37.950;145.008;2022-09-21T05:13:02;3;2;
54869;PMS5003;40756;-37.950;145.008;2022-09-21T05:15:32;5;5;
54869;PMS5003;40756;-37.950;145.008;2022-09-21T05:18:03;6;4;
54869;PMS5003;40756;-37.950;145.008;2022-09-21T05:20:32;5;5;
54869;PMS5003;40756;-37.950;145.008;2022-09-21T05:23:02;6;6;
54869;PMS5003;40756;-37.950;145.008;2022-09-21T05:25:31;6;5;
54869;PMS5003;40756;-37.950;145.008;2022-09-21T05:28:01;6;5;
54869;PMS5003;40756;-37.950;145.008;2022-09-21T05:30:31;7;7;
54869;PMS5003;40756;-37.950;145.008;2022-09-21T05:33:02;7;6;
54869;PMS5003;40756;-37.950;145.008;2022-09-21T05:35:34;5;5;
54869;PMS5003;40756;-37.950;145.008;2022-09-21T05:38:11;5;4;
54869;PMS5003;40756;-37.950;145.008;2022-09-21T05:40:44;6;6;
54869;PMS5003;40756;-37.950;145.008;2022-09-21T05:43:14;7;6;
54869;PMS5003;40756;-37.950;145.008;2022-09-21T05:45:45;5;5;
54869;PMS5003;40756;-37.950;145.008;2022-09-21T05:48:20;4;3;
54869;PMS5003;40756;-37.950;145.008;2022-09-21T05:50:56;2;2;
54869;PMS5003;40756;-37.950;145.008;2022-09-21T05:53:42;3;3;
54869;PMS5003;40756;-37.950;145.008;2022-09-21T05:56:23;2;2;
54869;PMS5003;40756;-37.950;145.008;2022-09-21T05:59:03;2;2;
54869;PMS5003;40756;-37.950;145.008;2022-09-21T06:01:50;2;2;
54869;PMS5003;40756;-37.950;145.008;2022-09-21T06:04:31;2;2;
54869;PMS5003;40756;-37.950;145.008;2022-09-21T06:07:01;4;3;
54869;PMS5003;40756;-37.950;145.008;2022-09-21T06:09:30;3;3;
54869;PMS5003;40756;-37.950;145.008;2022-09-21T06:12:00;4;3;
54869;PMS5003;40756;-37.950;145.008;2022-09-21T06:14:30;5;5;
54869;PMS5003;40756;-37.950;145.008;2022-09-21T06:17:01;5;5;
54869;PMS5003;40756;-37.950;145.008;2022-09-21T06:19:30;2;2;
54869;PMS5003;40756;-37.950;145.008;2022-09-21T06:21:59;3;3;
54869;PMS5003;40756;-37.950;145.008;2022-09-21T06:24:29;5;5;
54869;PMS5003;40756;-37.950;145.008;2022-09-21T06:26:58;3;3;
54869;PMS5003;40756;-37.950;145.008;2022-09-21T06:29:28;4;4;
54869;PMS5003;40756;-37.950;145.008;2022-09-21T06:31:57;4;3;
54869;PMS5003;40756;-37.950;145.008;2022-09-21T06:34:28;2;2;
54869;PMS5003;40756;-37.950;145.008;2022-09-21T06:36:57;2;2;
54869;PMS5003;40756;-37.950;145.008;2022-09-21T06:39:27;5;4;
54869;PMS5003;40756;-37.950;145.008;2022-09-21T06:41:56;2;2;
54869;PMS5003;40756;-37.950;145.008;2022-09-21T06:44:26;3;2;
54869;PMS5003;40756;-37.950;145.008;2022-09-21T06:46:55;4;4;
54869;PMS5003;40756;-37.950;145.008;2022-09-21T06:49:25;4;4;
54869;PMS5003;40756;-37.950;145.008;2022-09-21T06:51:54;3;3;
54869;PMS5003;40756;-37.950;145.008;2022-09-21T06:54:24;2;2;
54869;PMS5003;40756;-37.950;145.008;2022-09-21T06:56:53;3;3;
54869;PMS5003;40756;-37.950;145.008;2022-09-21T06:59:23;4;4;
54869;PMS5003;40756;-37.950;145.008;2022-09-21T07:01:52;5;5;
54869;PMS5003;40756;-37.950;145.008;2022-09-21T07:04:22;4;4;
54869;PMS5003;40756;-37.950;145.008;2022-09-21T07:06:51;3;3;
54869;PMS5003;40756;-37.950;145.008;2022-09-21T07:09:21;3;3;
54869;PMS5003;40756;-37.950;145.008;2022-09-21T07:11:50;3;3;
54869;PMS5003;40756;-37.950;145.008;2022-09-21T07:14:20;4;4;
54869;PMS5003;40756;-37.950;145.008;2022-09-21T07:16:49;4;4;
54869;PMS5003;40756;-37.950;145.008;2022-09-21T07:19:20;3;3;
54869;PMS5003;40756;-37.950;145.008;2022-09-21T07:21:52;2;2;
54869;PMS5003;40756;-37.950;145.008;2022-09-21T07:24:21;6;5;
54869;PMS5003;40756;-37.950;145.008;2022-09-21T07:26:51;4;4;
54869;PMS5003;40756;-37.950;145.008;2022-09-21T07:29:20;2;2;
54869;PMS5003;40756;-37.950;145.008;2022-09-21T07:31:50;4;3;
54869;PMS5003;40756;-37.950;145.008;2022-09-21T07:34:20;4;3;
54869;PMS5003;40756;-37.950;145.008;2022-09-21T07:36:49;4;4;
54869;PMS5003;40756;-37.950;145.008;2022-09-21T07:39:19;4;4;
54869;PMS5003;40756;-37.950;145.008;2022-09-21T07:41:48;2;2;
54869;PMS5003;40756;-37.950;145.008;2022-09-21T07:44:18;4;4;
54869;PMS5003;40756;-37.950;145.008;2022-09-21T07:46:47;3;3;
54869;PMS5003;40756;-37.950;145.008;2022-09-21T07:49:17;4;4;
54869;PMS5003;40756;-37.950;145.008;2022-09-21T07:51:46;5;3;
54869;PMS5003;40756;-37.950;145.008;2022-09-21T07:54:16;3;3;
54869;PMS5003;40756;-37.950;145.008;2022-09-21T07:56:45;4;4;
54869;PMS5003;40756;-37.950;145.008;2022-09-21T07:59:15;4;3;
54869;PMS5003;40756;-37.950;145.008;2022-09-21T08:01:45;4;4;
54869;PMS5003;40756;-37.950;145.008;2022-09-21T08:04:14;4;4;
54869;PMS5003;40756;-37.950;145.008;2022-09-21T08:06:44;3;3;
54869;PMS5003;40756;-37.950;145.008;2022-09-21T08:09:13;4;4;
54869;PMS5003;40756;-37.950;145.008;2022-09-21T08:11:43;5;4;
54869;PMS5003;40756;-37.950;145.008;2022-09-21T08:14:12;4;4;
54869;PMS5003;40756;-37.950;145.008;2022-09-21T08:16:42;5;5;
54869;PMS5003;40756;-37.950;145.008;2022-09-21T08:19:12;4;4;
54869;PMS5003;40756;-37.950;145.008;2022-09-21T08:21:43;4;4;
54869;PMS5003;40756;-37.950;145.008;2022-09-21T08:24:14;5;5;
54869;PMS5003;40756;-37.950;145.008;2022-09-21T08:26:44;5;5;
54869;PMS5003;40756;-37.950;145.008;2022-09-21T08:29:13;5;5;
54869;PMS5003;40756;-37.950;145.008;2022-09-21T08:31:43;4;4;
54869;PMS5003;40756;-37.950;145.008;2022-09-21T08:34:12;4;4;
54869;PMS5003;40756;-37.950;145.008;2022-09-21T08:36:42;5;5;
54869;PMS5003;40756;-37.950;145.008;2022-09-21T08:39:11;5;5;
54869;PMS5003;40756;-37.950;145.008;2022-09-21T08:41:45;5;5;
54869;PMS5003;40756;-37.950;145.008;2022-09-21T08:44:27;6;5;
54869;PMS5003;40756;-37.950;145.008;2022-09-21T08:47:05;6;6;
54869;PMS5003;40756;-37.950;145.008;2022-09-21T08:49:44;7;7;
54869;PMS5003;40756;-37.950;145.008;2022-09-21T08:52:18;5;5;
54869;PMS5003;40756;-37.950;145.008;2022-09-21T08:54:52;6;5;
54869;PMS5003;40756;-37.950;145.008;2022-09-21T08:57:27;5;5;
54869;PMS5003;40756;-37.950;145.008;2022-09-21T08:59:59;5;5;
54869;PMS5003;40756;-37.950;145.008;2022-09-21T09:02:37;5;5;
54869;PMS5003;40756;-37.950;145.008;2022-09-21T09:05:24;3;3;
54869;PMS5003;40756;-37.950;145.008;2022-09-21T09:08:11;5;5;
54869;PMS5003;40756;-37.950;145.008;2022-09-21T09:10:53;12;11;
54869;PMS5003;40756;-37.950;145.008;2022-09-21T09:13:34;11;11;
54869;PMS5003;40756;-37.950;145.008;2022-09-21T09:16:22;13;13;
54869;PMS5003;40756;-37.950;145.008;2022-09-21T09:19:10;13;13;
54869;PMS5003;40756;-37.950;145.008;2022-09-21T09:21:49;8;8;
54869;PMS5003;40756;-37.950;145.008;2022-09-21T09:24:26;9;8;
54869;PMS5003;40756;-37.950;145.008;2022-09-21T09:27:02;10;9;
54869;PMS5003;40756;-37.950;145.008;2022-09-21T09:29:40;9;8;
54869;PMS5003;40756;-37.950;145.008;2022-09-21T09:32:20;8;7;
54869;PMS5003;40756;-37.950;145.008;2022-09-21T09:34:59;9;9;
54869;PMS5003;40756;-37.950;145.008;2022-09-21T09:37:35;9;9;
54869;PMS5003;40756;-37.950;145.008;2022-09-21T09:40:10;10;9;
54869;PMS5003;40756;-37.950;145.008;2022-09-21T09:42:44;10;10;
54869;PMS5003;40756;-37.950;145.008;2022-09-21T09:45:23;9;9;
54869;PMS5003;40756;-37.950;145.008;2022-09-21T09:48:16;12;11;
54869;PMS5003;40756;-37.950;145.008;2022-09-21T09:50:59;9;9;
54869;PMS5003;40756;-37.950;145.008;2022-09-21T09:53:28;11;11;
54869;PMS5003;40756;-37.950;145.008;2022-09-21T09:55:58;10;9;
54869;PMS5003;40756;-37.950;145.008;2022-09-21T09:58:32;10;9;
54869;PMS5003;40756;-37.950;145.008;2022-09-21T10:01:08;9;9;
54869;PMS5003;40756;-37.950;145.008;2022-09-21T10:04:04;8;8;
54869;PMS5003;40756;-37.950;145.008;2022-09-21T10:06:36;7;7;
54869;PMS5003;40756;-37.950;145.008;2022-09-21T10:09:17;9;8;
54869;PMS5003;40756;-37.950;145.008;2022-09-21T10:11:51;7;7;
54869;PMS5003;40756;-37.950;145.008;2022-09-21T10:14:22;7;7;
54869;PMS5003;40756;-37.950;145.008;2022-09-21T10:16:54;8;7;
54869;PMS5003;40756;-37.950;145.008;2022-09-21T10:19:28;8;8;
54869;PMS5003;40756;-37.950;145.008;2022-09-21T10:21:59;6;6;
54869;PMS5003;40756;-37.950;145.008;2022-09-21T10:24:31;8;8;
54869;PMS5003;40756;-37.950;145.008;2022-09-21T10:27:05;8;7;
54869;PMS5003;40756;-37.950;145.008;2022-09-21T10:29:41;8;8;
54869;PMS5003;40756;-37.950;145.008;2022-09-21T10:32:20;9;8;
54869;PMS5003;40756;-37.950;145.008;2022-09-21T10:35:00;8;8;
54869;PMS5003;40756;-37.950;145.008;2022-09-21T10:37:47;7;6;
54869;PMS5003;40756;-37.950;145.008;2022-09-21T10:40:35;7;6;
54869;PMS5003;40756;-37.950;145.008;2022-09-21T10:43:17;7;7;
54869;PMS5003;40756;-37.950;145.008;2022-09-21T10:45:52;7;7;
54869;PMS5003;40756;-37.950;145.008;2022-09-21T10:48:23;8;7;
54869;PMS5003;40756;-37.950;145.008;2022-09-21T10:50:55;9;8;
54869;PMS5003;40756;-37.950;145.008;2022-09-21T10:53:26;7;7;
54869;PMS5003;40756;-37.950;145.008;2022-09-21T10:55:57;9;9;
54869;PMS5003;40756;-37.950;145.008;2022-09-21T10:58:30;7;7;
54869;PMS5003;40756;-37.950;145.008;2022-09-21T11:01:09;7;7;
54869;PMS5003;40756;-37.950;145.008;2022-09-21T11:03:49;8;8;
54869;PMS5003;40756;-37.950;145.008;2022-09-21T11:06:25;8;8;
54869;PMS5003;40756;-37.950;145.008;2022-09-21T11:08:59;8;7;
54869;PMS5003;40756;-37.950;145.008;2022-09-21T11:11:42;6;6;
54869;PMS5003;40756;-37.950;145.008;2022-09-21T11:14:28;9;8;
54869;PMS5003;40756;-37.950;145.008;2022-09-21T11:17:11;8;8;
54869;PMS5003;40756;-37.950;145.008;2022-09-21T11:19:48;7;6;
54869;PMS5003;40756;-37.950;145.008;2022-09-21T11:22:26;7;7;
54869;PMS5003;40756;-37.950;145.008;2022-09-21T11:25:05;8;8;
54869;PMS5003;40756;-37.950;145.008;2022-09-21T11:27:50;8;8;
54869;PMS5003;40756;-37.950;145.008;2022-09-21T11:30:26;8;7;
54869;PMS5003;40756;-37.950;145.008;2022-09-21T11:33:12;8;8;
54869;PMS5003;40756;-37.950;145.008;2022-09-21T11:35:55;11;11;
54869;PMS5003;40756;-37.950;145.008;2022-09-21T11:38:36;11;8;
54869;PMS5003;40756;-37.950;145.008;2022-09-21T11:41:22;10;10;
54869;PMS5003;40756;-37.950;145.008;2022-09-21T11:44:10;10;9;
54869;PMS5003;40756;-37.950;145.008;2022-09-21T11:47:04;8;8;
54869;PMS5003;40756;-37.950;145.008;2022-09-21T11:49:48;9;9;
54869;PMS5003;40756;-37.950;145.008;2022-09-21T11:52:35;9;9;
54869;PMS5003;40756;-37.950;145.008;2022-09-21T11:55:20;9;8;
54869;PMS5003;40756;-37.950;145.008;2022-09-21T11:58:03;10;10;
54869;PMS5003;40756;-37.950;145.008;2022-09-21T12:00:41;13;13;
54869;PMS5003;40756;-37.950;145.008;2022-09-21T12:03:28;8;8;
54869;PMS5003;40756;-37.950;145.008;2022-09-21T12:06:12;10;10;
54869;PMS5003;40756;-37.950;145.008;2022-09-21T12:08:55;10;9;
54869;PMS5003;40756;-37.950;145.008;2022-09-21T12:11:38;11;10;
54869;PMS5003;40756;-37.950;145.008;2022-09-21T12:14:12;9;9;
54869;PMS5003;40756;-37.950;145.008;2022-09-21T12:16:49;7;7;
54869;PMS5003;40756;-37.950;145.008;2022-09-21T12:19:27;9;8;
54869;PMS5003;40756;-37.950;145.008;2022-09-21T12:22:06;10;9;
54869;PMS5003;40756;-37.950;145.008;2022-09-21T12:24:41;9;8;
54869;PMS5003;40756;-37.950;145.008;2022-09-21T12:27:18;8;7;
54869;PMS5003;40756;-37.950;145.008;2022-09-21T12:29:54;9;8;
54869;PMS5003;40756;-37.950;145.008;2022-09-21T12:32:38;9;9;
54869;PMS5003;40756;-37.950;145.008;2022-09-21T12:35:16;14;10;
54869;PMS5003;40756;-37.950;145.008;2022-09-21T12:37:53;8;8;
54869;PMS5003;40756;-37.950;145.008;2022-09-21T12:40:29;9;9;
54869;PMS5003;40756;-37.950;145.008;2022-09-21T12:43:06;9;8;
54869;PMS5003;40756;-37.950;145.008;2022-09-21T12:45:47;7;7;
54869;PMS5003;40756;-37.950;145.008;2022-09-21T12:48:25;9;9;
54869;PMS5003;40756;-37.950;145.008;2022-09-21T12:50:58;12;12;
54869;PMS5003;40756;-37.950;145.008;2022-09-21T12:53:34;8;8;
54869;PMS5003;40756;-37.950;145.008;2022-09-21T12:56:06;10;10;
54869;PMS5003;40756;-37.950;145.008;2022-09-21T12:58:44;10;10;
54869;PMS5003;40756;-37.950;145.008;2022-09-21T13:01:28;9;9;
54869;PMS5003;40756;-37.950;145.008;2022-09-21T13:04:09;11;10;
54869;PMS5003;40756;-37.950;145.008;2022-09-21T13:08:36;12;11;
54869;PMS5003;40756;-37.950;145.008;2022-09-21T13:11:10;9;8;
54869;PMS5003;40756;-37.950;145.008;2022-09-21T13:13:47;9;8;
54869;PMS5003;40756;-37.950;145.008;2022-09-21T13:16:24;8;8;
54869;PMS5003;40756;-37.950;145.008;2022-09-21T13:18:56;11;10;
54869;PMS5003;40756;-37.950;145.008;2022-09-21T13:21:29;8;8;
54869;PMS5003;40756;-37.950;145.008;2022-09-21T13:24:00;9;9;
54869;PMS5003;40756;-37.950;145.008;2022-09-21T13:26:35;9;8;
54869;PMS5003;40756;-37.950;145.008;2022-09-21T13:29:24;8;8;
54869;PMS5003;40756;-37.950;145.008;2022-09-21T13:31:58;10;10;
54869;PMS5003;40756;-37.950;145.008;2022-09-21T13:34:29;10;9;
54869;PMS5003;40756;-37.950;145.008;2022-09-21T13:37:35;12;12;
54869;PMS5003;40756;-37.950;145.008;2022-09-21T13:40:37;19;16;
54869;PMS5003;40756;-37.950;145.008;2022-09-21T13:44:38;10;9;
54869;PMS5003;40756;-37.950;145.008;2022-09-21T13:47:09;8;8;
54869;PMS5003;40756;-37.950;145.008;2022-09-21T13:49:40;8;7;
54869;PMS5003;40756;-37.950;145.008;2022-09-21T13:52:21;11;10;
54869;PMS5003;40756;-37.950;145.008;2022-09-21T13:54:57;11;10;
54869;PMS5003;40756;-37.950;145.008;2022-09-21T13:57:31;10;10;
54869;PMS5003;40756;-37.950;145.008;2022-09-21T14:00:39;12;11;
54869;PMS5003;40756;-37.950;145.008;2022-09-21T14:03:20;10;9;
54869;PMS5003;40756;-37.950;145.008;2022-09-21T14:05:52;15;12;
54869;PMS5003;40756;-37.950;145.008;2022-09-21T14:08:29;11;10;
54869;PMS5003;40756;-37.950;145.008;2022-09-21T14:11:03;11;11;
54869;PMS5003;40756;-37.950;145.008;2022-09-21T14:13:37;10;10;
54869;PMS5003;40756;-37.950;145.008;2022-09-21T14:16:26;14;14;
54869;PMS5003;40756;-37.950;145.008;2022-09-21T14:19:58;11;11;
54869;PMS5003;40756;-37.950;145.008;2022-09-21T14:22:33;10;9;
54869;PMS5003;40756;-37.950;145.008;2022-09-21T14:25:23;13;12;
54869;PMS5003;40756;-37.950;145.008;2022-09-21T14:28:01;13;12;
54869;PMS5003;40756;-37.950;145.008;2022-09-21T14:30:38;10;10;
54869;PMS5003;40756;-37.950;145.008;2022-09-21T14:33:21;10;10;
54869;PMS5003;40756;-37.950;145.008;2022-09-21T14:35:57;12;12;
54869;PMS5003;40756;-37.950;145.008;2022-09-21T14:38:35;12;12;
54869;PMS5003;40756;-37.950;145.008;2022-09-21T14:41:12;13;13;
54869;PMS5003;40756;-37.950;145.008;2022-09-21T14:43:48;14;13;
54869;PMS5003;40756;-37.950;145.008;2022-09-21T14:46:23;10;10;
54869;PMS5003;40756;-37.950;145.008;2022-09-21T14:49:10;11;11;
54869;PMS5003;40756;-37.950;145.008;2022-09-21T14:51:54;15;14;
54869;PMS5003;40756;-37.950;145.008;2022-09-21T14:54:38;12;11;
54869;PMS5003;40756;-37.950;145.008;2022-09-21T14:57:22;12;12;
54869;PMS5003;40756;-37.950;145.008;2022-09-21T15:00:20;12;11;
54869;PMS5003;40756;-37.950;145.008;2022-09-21T15:02:58;15;15;
54869;PMS5003;40756;-37.950;145.008;2022-09-21T15:05:39;15;15;
54869;PMS5003;40756;-37.950;145.008;2022-09-21T15:08:16;14;14;
54869;PMS5003;40756;-37.950;145.008;2022-09-21T15:11:04;16;15;
54869;PMS5003;40756;-37.950;145.008;2022-09-21T15:13:49;13;12;
54869;PMS5003;40756;-37.950;145.008;2022-09-21T15:16:34;14;12;
54869;PMS5003;40756;-37.950;145.008;2022-09-21T15:19:13;13;12;
54869;PMS5003;40756;-37.950;145.008;2022-09-21T15:21:49;12;12;
54869;PMS5003;40756;-37.950;145.008;2022-09-21T15:24:22;14;14;
54869;PMS5003;40756;-37.950;145.008;2022-09-21T15:26:54;14;14;
54869;PMS5003;40756;-37.950;145.008;2022-09-21T15:29:33;15;14;
54869;PMS5003;40756;-37.950;145.008;2022-09-21T15:32:05;14;14;
54869;PMS5003;40756;-37.950;145.008;2022-09-21T15:34:35;16;15;
54869;PMS5003;40756;-37.950;145.008;2022-09-21T15:37:06;15;14;
54869;PMS5003;40756;-37.950;145.008;2022-09-21T15:39:41;15;14;
54869;PMS5003;40756;-37.950;145.008;2022-09-21T15:42:15;12;12;
54869;PMS5003;40756;-37.950;145.008;2022-09-21T15:44:48;15;13;
54869;PMS5003;40756;-37.950;145.008;2022-09-21T15:47:25;20;19;
54869;PMS5003;40756;-37.950;145.008;2022-09-21T15:49:54;15;14;
54869;PMS5003;40756;-37.950;145.008;2022-09-21T15:52:26;16;16;
54869;PMS5003;40756;-37.950;145.008;2022-09-21T15:55:03;14;14;
54869;PMS5003;40756;-37.950;145.008;2022-09-21T15:57:38;14;14;
54869;PMS5003;40756;-37.950;145.008;2022-09-21T16:00:17;14;13;
54869;PMS5003;40756;-37.950;145.008;2022-09-21T16:02:53;12;12;
54869;PMS5003;40756;-37.950;145.008;2022-09-21T16:05:27;16;15;
54869;PMS5003;40756;-37.950;145.008;2022-09-21T16:08:15;19;18;
54869;PMS5003;40756;-37.950;145.008;2022-09-21T16:10:48;16;16;
54869;PMS5003;40756;-37.950;145.008;2022-09-21T16:13:18;13;13;
54869;PMS5003;40756;-37.950;145.008;2022-09-21T16:15:59;14;13;
54869;PMS5003;40756;-37.950;145.008;2022-09-21T16:18:31;16;16;
54869;PMS5003;40756;-37.950;145.008;2022-09-21T16:21:11;15;15;
54869;PMS5003;40756;-37.950;145.008;2022-09-21T16:23:47;15;14;
54869;PMS5003;40756;-37.950;145.008;2022-09-21T16:26:20;16;15;
54869;PMS5003;40756;-37.950;145.008;2022-09-21T16:29:16;17;17;
54869;PMS5003;40756;-37.950;145.008;2022-09-21T16:31:49;15;15;
54869;PMS5003;40756;-37.950;145.008;2022-09-21T16:34:46;16;16;
54869;PMS5003;40756;-37.950;145.008;2022-09-21T16:37:20;15;15;
54869;PMS5003;40756;-37.950;145.008;2022-09-21T16:39:54;14;13;
54869;PMS5003;40756;-37.950;145.008;2022-09-21T16:42:26;15;14;
54869;PMS5003;40756;-37.950;145.008;2022-09-21T16:44:56;15;14;
54869;PMS5003;40756;-37.950;145.008;2022-09-21T16:47:26;13;13;